sensor_id;sensor_type;location;lat;lon;timestamp;P1;durP1;ratioP1;P2;durP2;ratioP2
24891;SDS011;12954;50.688;10.908;2022-08-05T00:00:38;3.08;;;1.70;;
24891;SDS011;12954;50.688;10.908;2022-08-05T00:03:15;2.30;;;1.70;;
24891;SDS011;12954;50.688;10.908;2022-08-05T00:05:44;5.00;;;1.90;;
24891;SDS011;12954;50.688;10.908;2022-08-05T00:08:33;3.08;;;1.77;;
24891;SDS011;12954;50.688;10.908;2022-08-05T00:11:02;3.80;;;1.80;;
24891;SDS011;12954;50.688;10.908;2022-08-05T00:13:53;3.97;;;1.90;;
24891;SDS011;12954;50.688;10.908;2022-08-05T00:16:23;3.92;;;1.95;;
24891;SDS011;12954;50.688;10.908;2022-08-05T00:19:02;4.57;;;1.60;;
24891;SDS011;12954;50.688;10.908;2022-08-05T00:21:31;2.88;;;1.73;;
24891;SDS011;12954;50.688;10.908;2022-08-05T00:24:01;2.90;;;2.15;;
24891;SDS011;12954;50.688;10.908;2022-08-05T00:26:36;3.03;;;1.90;;
24891;SDS011;12954;50.688;10.908;2022-08-05T00:29:17;3.53;;;1.83;;
24891;SDS011;12954;50.688;10.908;2022-08-05T00:31:52;3.45;;;1.95;;
24891;SDS011;12954;50.688;10.908;2022-08-05T00:34:41;3.67;;;2.67;;
24891;SDS011;12954;50.688;10.908;2022-08-05T00:37:30;5.25;;;3.13;;
24891;SDS011;12954;50.688;10.908;2022-08-05T00:40:19;5.22;;;2.40;;
24891;SDS011;12954;50.688;10.908;2022-08-05T00:42:54;4.10;;;2.55;;
24891;SDS011;12954;50.688;10.908;2022-08-05T00:45:24;5.13;;;2.75;;
24891;SDS011;12954;50.688;10.908;2022-08-05T00:48:06;4.50;;;2.40;;
24891;SDS011;12954;50.688;10.908;2022-08-05T00:50:35;5.20;;;1.90;;
24891;SDS011;12954;50.688;10.908;2022-08-05T00:53:07;4.75;;;1.63;;
24891;SDS011;12954;50.688;10.908;2022-08-05T00:55:56;4.07;;;2.22;;
24891;SDS011;12954;50.688;10.908;2022-08-05T00:58:25;3.55;;;2.35;;
24891;SDS011;12954;50.688;10.908;2022-08-05T01:00:54;6.43;;;2.50;;
24891;SDS011;12954;50.688;10.908;2022-08-05T01:03:24;3.65;;;2.45;;
24891;SDS011;12954;50.688;10.908;2022-08-05T01:05:59;3.58;;;2.60;;
24891;SDS011;12954;50.688;10.908;2022-08-05T01:08:31;6.05;;;2.88;;
24891;SDS011;12954;50.688;10.908;2022-08-05T01:11:11;5.72;;;2.50;;
24891;SDS011;12954;50.688;10.908;2022-08-05T01:13:52;3.53;;;2.33;;
24891;SDS011;12954;50.688;10.908;2022-08-05T01:16:29;2.85;;;2.20;;
24891;SDS011;12954;50.688;10.908;2022-08-05T01:19:14;5.22;;;2.30;;
24891;SDS011;12954;50.688;10.908;2022-08-05T01:22:14;4.63;;;2.63;;
24891;SDS011;12954;50.688;10.908;2022-08-05T01:25:07;6.10;;;3.75;;
24891;SDS011;12954;50.688;10.908;2022-08-05T01:28:17;5.47;;;2.92;;
24891;SDS011;12954;50.688;10.908;2022-08-05T01:30:51;5.22;;;2.42;;
24891;SDS011;12954;50.688;10.908;2022-08-05T01:33:30;4.47;;;2.77;;
24891;SDS011;12954;50.688;10.908;2022-08-05T01:36:05;5.72;;;2.28;;
24891;SDS011;12954;50.688;10.908;2022-08-05T01:38:41;3.65;;;2.45;;
24891;SDS011;12954;50.688;10.908;2022-08-05T01:41:16;3.03;;;2.65;;
24891;SDS011;12954;50.688;10.908;2022-08-05T01:43:52;5.15;;;2.80;;
24891;SDS011;12954;50.688;10.908;2022-08-05T01:46:22;7.78;;;2.78;;
24891;SDS011;12954;50.688;10.908;2022-08-05T01:49:10;4.28;;;3.35;;
24891;SDS011;12954;50.688;10.908;2022-08-05T01:51:50;4.75;;;3.53;;
24891;SDS011;12954;50.688;10.908;2022-08-05T01:54:24;4.38;;;3.30;;
24891;SDS011;12954;50.688;10.908;2022-08-05T01:56:56;3.50;;;2.60;;
24891;SDS011;12954;50.688;10.908;2022-08-05T01:59:48;5.70;;;3.00;;
24891;SDS011;12954;50.688;10.908;2022-08-05T02:02:20;5.07;;;2.85;;
24891;SDS011;12954;50.688;10.908;2022-08-05T02:04:55;4.88;;;3.17;;
24891;SDS011;12954;50.688;10.908;2022-08-05T02:07:28;5.63;;;3.50;;
24891;SDS011;12954;50.688;10.908;2022-08-05T02:09:59;6.00;;;2.88;;
24891;SDS011;12954;50.688;10.908;2022-08-05T02:12:30;7.78;;;2.40;;
24891;SDS011;12954;50.688;10.908;2022-08-05T02:15:08;7.78;;;2.00;;
24891;SDS011;12954;50.688;10.908;2022-08-05T02:17:47;5.45;;;1.77;;
24891;SDS011;12954;50.688;10.908;2022-08-05T02:20:40;3.88;;;2.00;;
24891;SDS011;12954;50.688;10.908;2022-08-05T02:23:14;4.22;;;2.20;;
24891;SDS011;12954;50.688;10.908;2022-08-05T02:25:47;6.82;;;1.90;;
24891;SDS011;12954;50.688;10.908;2022-08-05T02:28:22;5.85;;;2.22;;
24891;SDS011;12954;50.688;10.908;2022-08-05T02:31:01;3.03;;;2.10;;
24891;SDS011;12954;50.688;10.908;2022-08-05T02:33:41;7.78;;;2.15;;
24891;SDS011;12954;50.688;10.908;2022-08-05T02:36:22;2.45;;;1.83;;
24891;SDS011;12954;50.688;10.908;2022-08-05T02:38:57;5.82;;;1.77;;
24891;SDS011;12954;50.688;10.908;2022-08-05T02:41:34;5.70;;;2.10;;
24891;SDS011;12954;50.688;10.908;2022-08-05T02:44:23;2.58;;;1.52;;
24891;SDS011;12954;50.688;10.908;2022-08-05T02:46:55;6.72;;;2.30;;
24891;SDS011;12954;50.688;10.908;2022-08-05T02:49:27;4.35;;;2.15;;
24891;SDS011;12954;50.688;10.908;2022-08-05T02:52:04;5.00;;;2.20;;
24891;SDS011;12954;50.688;10.908;2022-08-05T02:54:37;6.80;;;2.28;;
24891;SDS011;12954;50.688;10.908;2022-08-05T02:57:16;3.63;;;2.30;;
24891;SDS011;12954;50.688;10.908;2022-08-05T03:00:07;5.30;;;2.30;;
24891;SDS011;12954;50.688;10.908;2022-08-05T03:02:40;5.43;;;2.40;;
24891;SDS011;12954;50.688;10.908;2022-08-05T03:05:10;6.68;;;2.63;;
24891;SDS011;12954;50.688;10.908;2022-08-05T03:07:41;2.90;;;1.83;;
24891;SDS011;12954;50.688;10.908;2022-08-05T03:10:31;5.20;;;2.28;;
24891;SDS011;12954;50.688;10.908;2022-08-05T03:12:59;7.88;;;2.50;;
24891;SDS011;12954;50.688;10.908;2022-08-05T03:15:26;5.50;;;2.50;;
24891;SDS011;12954;50.688;10.908;2022-08-05T03:18:00;3.65;;;1.95;;
24891;SDS011;12954;50.688;10.908;2022-08-05T03:20:33;6.97;;;2.00;;
24891;SDS011;12954;50.688;10.908;2022-08-05T03:23:01;4.75;;;1.95;;
24891;SDS011;12954;50.688;10.908;2022-08-05T03:25:32;7.47;;;2.25;;
24891;SDS011;12954;50.688;10.908;2022-08-05T03:28:22;4.68;;;2.03;;
24891;SDS011;12954;50.688;10.908;2022-08-05T03:30:52;4.38;;;2.00;;
24891;SDS011;12954;50.688;10.908;2022-08-05T03:33:23;7.30;;;2.63;;
24891;SDS011;12954;50.688;10.908;2022-08-05T03:36:14;5.53;;;2.05;;
24891;SDS011;12954;50.688;10.908;2022-08-05T03:38:55;2.97;;;2.03;;
24891;SDS011;12954;50.688;10.908;2022-08-05T03:41:25;4.40;;;1.95;;
24891;SDS011;12954;50.688;10.908;2022-08-05T03:44:03;3.97;;;2.08;;
24891;SDS011;12954;50.688;10.908;2022-08-05T03:46:37;5.57;;;2.42;;
24891;SDS011;12954;50.688;10.908;2022-08-05T03:49:07;2.63;;;1.95;;
24891;SDS011;12954;50.688;10.908;2022-08-05T03:51:37;3.40;;;2.20;;
24891;SDS011;12954;50.688;10.908;2022-08-05T03:54:30;5.95;;;2.33;;
24891;SDS011;12954;50.688;10.908;2022-08-05T03:57:22;6.13;;;2.05;;
24891;SDS011;12954;50.688;10.908;2022-08-05T04:00:08;5.28;;;2.17;;
24891;SDS011;12954;50.688;10.908;2022-08-05T04:02:41;6.28;;;2.22;;
24891;SDS011;12954;50.688;10.908;2022-08-05T04:05:26;3.15;;;2.25;;
24891;SDS011;12954;50.688;10.908;2022-08-05T04:08:00;2.05;;;1.77;;
24891;SDS011;12954;50.688;10.908;2022-08-05T04:10:52;4.50;;;1.95;;
24891;SDS011;12954;50.688;10.908;2022-08-05T04:13:22;4.90;;;2.20;;
24891;SDS011;12954;50.688;10.908;2022-08-05T04:16:11;3.10;;;2.05;;
24891;SDS011;12954;50.688;10.908;2022-08-05T04:18:49;4.97;;;1.73;;
24891;SDS011;12954;50.688;10.908;2022-08-05T04:21:21;7.15;;;2.20;;
24891;SDS011;12954;50.688;10.908;2022-08-05T04:24:09;5.88;;;2.00;;
24891;SDS011;12954;50.688;10.908;2022-08-05T04:26:45;4.60;;;1.83;;
24891;SDS011;12954;50.688;10.908;2022-08-05T04:29:13;4.47;;;2.13;;
24891;SDS011;12954;50.688;10.908;2022-08-05T04:31:42;3.78;;;1.88;;
24891;SDS011;12954;50.688;10.908;2022-08-05T04:34:13;4.65;;;1.85;;
24891;SDS011;12954;50.688;10.908;2022-08-05T04:37:00;6.18;;;2.03;;
24891;SDS011;12954;50.688;10.908;2022-08-05T04:39:30;2.97;;;2.17;;
24891;SDS011;12954;50.688;10.908;2022-08-05T04:42:01;5.68;;;2.30;;
24891;SDS011;12954;50.688;10.908;2022-08-05T04:44:30;3.17;;;2.20;;
24891;SDS011;12954;50.688;10.908;2022-08-05T04:46:58;5.18;;;2.00;;
24891;SDS011;12954;50.688;10.908;2022-08-05T04:49:36;5.05;;;2.20;;
24891;SDS011;12954;50.688;10.908;2022-08-05T04:52:27;4.80;;;2.08;;
24891;SDS011;12954;50.688;10.908;2022-08-05T04:54:59;3.22;;;1.95;;
24891;SDS011;12954;50.688;10.908;2022-08-05T04:57:40;3.72;;;2.33;;
24891;SDS011;12954;50.688;10.908;2022-08-05T05:00:13;4.53;;;2.00;;
24891;SDS011;12954;50.688;10.908;2022-08-05T05:02:43;4.95;;;2.05;;
24891;SDS011;12954;50.688;10.908;2022-08-05T05:05:11;4.20;;;2.15;;
24891;SDS011;12954;50.688;10.908;2022-08-05T05:07:53;4.47;;;2.00;;
24891;SDS011;12954;50.688;10.908;2022-08-05T05:10:26;4.47;;;2.05;;
24891;SDS011;12954;50.688;10.908;2022-08-05T05:12:55;5.18;;;2.15;;
24891;SDS011;12954;50.688;10.908;2022-08-05T05:15:27;5.38;;;1.92;;
24891;SDS011;12954;50.688;10.908;2022-08-05T05:18:15;9.93;;;2.25;;
24891;SDS011;12954;50.688;10.908;2022-08-05T05:23:30;2.65;;;2.20;;
24891;SDS011;12954;50.688;10.908;2022-08-05T05:26:18;5.07;;;2.35;;
24891;SDS011;12954;50.688;10.908;2022-08-05T05:28:57;5.00;;;2.15;;
24891;SDS011;12954;50.688;10.908;2022-08-05T05:31:27;5.43;;;3.90;;
24891;SDS011;12954;50.688;10.908;2022-08-05T05:33:56;4.80;;;2.15;;
24891;SDS011;12954;50.688;10.908;2022-08-05T05:36:28;4.15;;;2.65;;
24891;SDS011;12954;50.688;10.908;2022-08-05T05:39:02;3.30;;;2.00;;
24891;SDS011;12954;50.688;10.908;2022-08-05T05:41:36;4.82;;;2.65;;
24891;SDS011;12954;50.688;10.908;2022-08-05T05:44:06;5.32;;;2.13;;
24891;SDS011;12954;50.688;10.908;2022-08-05T05:46:54;4.43;;;2.33;;
24891;SDS011;12954;50.688;10.908;2022-08-05T05:49:29;5.38;;;2.33;;
24891;SDS011;12954;50.688;10.908;2022-08-05T05:51:59;5.97;;;2.50;;
24891;SDS011;12954;50.688;10.908;2022-08-05T05:54:34;7.00;;;2.65;;
24891;SDS011;12954;50.688;10.908;2022-08-05T05:59:45;4.47;;;2.35;;
24891;SDS011;12954;50.688;10.908;2022-08-05T06:02:14;4.32;;;2.47;;
24891;SDS011;12954;50.688;10.908;2022-08-05T06:05:03;5.47;;;2.20;;
24891;SDS011;12954;50.688;10.908;2022-08-05T06:07:41;2.85;;;2.15;;
24891;SDS011;12954;50.688;10.908;2022-08-05T06:10:29;6.07;;;2.40;;
24891;SDS011;12954;50.688;10.908;2022-08-05T06:13:02;4.13;;;2.35;;
24891;SDS011;12954;50.688;10.908;2022-08-05T06:15:31;3.83;;;2.35;;
24891;SDS011;12954;50.688;10.908;2022-08-05T06:18:20;2.47;;;2.05;;
24891;SDS011;12954;50.688;10.908;2022-08-05T06:20:57;4.82;;;2.35;;
24891;SDS011;12954;50.688;10.908;2022-08-05T06:23:26;3.92;;;2.40;;
24891;SDS011;12954;50.688;10.908;2022-08-05T06:26:11;5.63;;;2.33;;
24891;SDS011;12954;50.688;10.908;2022-08-05T06:28:49;3.58;;;2.15;;
24891;SDS011;12954;50.688;10.908;2022-08-05T06:31:18;5.53;;;2.25;;
24891;SDS011;12954;50.688;10.908;2022-08-05T06:33:47;3.17;;;2.08;;
24891;SDS011;12954;50.688;10.908;2022-08-05T06:36:33;2.80;;;1.90;;
24891;SDS011;12954;50.688;10.908;2022-08-05T06:39:22;4.32;;;2.10;;
24891;SDS011;12954;50.688;10.908;2022-08-05T06:41:54;6.13;;;2.53;;
24891;SDS011;12954;50.688;10.908;2022-08-05T06:44:24;4.97;;;2.17;;
24891;SDS011;12954;50.688;10.908;2022-08-05T06:46:53;4.20;;;2.20;;
24891;SDS011;12954;50.688;10.908;2022-08-05T06:49:22;3.03;;;1.88;;
24891;SDS011;12954;50.688;10.908;2022-08-05T06:52:12;4.47;;;1.90;;
24891;SDS011;12954;50.688;10.908;2022-08-05T06:55:00;4.47;;;2.63;;
24891;SDS011;12954;50.688;10.908;2022-08-05T06:57:31;4.53;;;3.08;;
24891;SDS011;12954;50.688;10.908;2022-08-05T07:00:19;2.55;;;1.75;;
24891;SDS011;12954;50.688;10.908;2022-08-05T07:02:50;2.45;;;1.40;;
24891;SDS011;12954;50.688;10.908;2022-08-05T07:05:19;2.55;;;1.70;;
24891;SDS011;12954;50.688;10.908;2022-08-05T07:08:03;3.90;;;1.80;;
24891;SDS011;12954;50.688;10.908;2022-08-05T07:10:36;3.63;;;1.40;;
24891;SDS011;12954;50.688;10.908;2022-08-05T07:13:20;1.83;;;1.50;;
24891;SDS011;12954;50.688;10.908;2022-08-05T07:16:25;5.13;;;2.08;;
24891;SDS011;12954;50.688;10.908;2022-08-05T07:19:32;2.78;;;1.70;;
24891;SDS011;12954;50.688;10.908;2022-08-05T07:22:21;3.40;;;1.90;;
24891;SDS011;12954;50.688;10.908;2022-08-05T07:24:55;2.95;;;1.75;;
24891;SDS011;12954;50.688;10.908;2022-08-05T07:27:45;6.45;;;1.55;;
24891;SDS011;12954;50.688;10.908;2022-08-05T07:30:26;2.45;;;1.85;;
24891;SDS011;12954;50.688;10.908;2022-08-05T07:32:59;4.93;;;1.75;;
24891;SDS011;12954;50.688;10.908;2022-08-05T07:35:34;1.90;;;1.50;;
24891;SDS011;12954;50.688;10.908;2022-08-05T07:38:23;2.08;;;1.70;;
24891;SDS011;12954;50.688;10.908;2022-08-05T07:41:00;4.18;;;1.55;;
24891;SDS011;12954;50.688;10.908;2022-08-05T07:43:49;9.48;;;2.22;;
24891;SDS011;12954;50.688;10.908;2022-08-05T07:46:23;6.03;;;2.00;;
24891;SDS011;12954;50.688;10.908;2022-08-05T07:48:53;4.03;;;1.70;;
24891;SDS011;12954;50.688;10.908;2022-08-05T07:51:35;4.55;;;1.90;;
24891;SDS011;12954;50.688;10.908;2022-08-05T07:54:18;3.03;;;1.80;;
24891;SDS011;12954;50.688;10.908;2022-08-05T07:56:52;3.72;;;1.75;;
24891;SDS011;12954;50.688;10.908;2022-08-05T07:59:41;5.18;;;1.75;;
24891;SDS011;12954;50.688;10.908;2022-08-05T08:02:14;2.38;;;1.70;;
24891;SDS011;12954;50.688;10.908;2022-08-05T08:04:46;2.15;;;1.50;;
24891;SDS011;12954;50.688;10.908;2022-08-05T08:07:16;2.97;;;1.65;;
24891;SDS011;12954;50.688;10.908;2022-08-05T08:09:48;3.25;;;1.80;;
24891;SDS011;12954;50.688;10.908;2022-08-05T08:12:20;3.65;;;1.80;;
24891;SDS011;12954;50.688;10.908;2022-08-05T08:15:05;2.25;;;2.00;;
24891;SDS011;12954;50.688;10.908;2022-08-05T08:17:43;3.47;;;2.10;;
24891;SDS011;12954;50.688;10.908;2022-08-05T08:20:18;3.20;;;2.03;;
24891;SDS011;12954;50.688;10.908;2022-08-05T08:23:08;2.65;;;1.95;;
24891;SDS011;12954;50.688;10.908;2022-08-05T08:25:56;3.38;;;1.92;;
24891;SDS011;12954;50.688;10.908;2022-08-05T08:28:30;1.55;;;1.45;;
24891;SDS011;12954;50.688;10.908;2022-08-05T08:31:07;1.70;;;1.60;;
24891;SDS011;12954;50.688;10.908;2022-08-05T08:33:44;3.20;;;1.52;;
24891;SDS011;12954;50.688;10.908;2022-08-05T08:36:18;1.55;;;1.40;;
24891;SDS011;12954;50.688;10.908;2022-08-05T08:39:07;2.20;;;1.75;;
24891;SDS011;12954;50.688;10.908;2022-08-05T08:41:42;2.50;;;1.95;;
24891;SDS011;12954;50.688;10.908;2022-08-05T08:47:16;2.25;;;2.05;;
24891;SDS011;12954;50.688;10.908;2022-08-05T08:50:10;3.05;;;2.35;;
24891;SDS011;12954;50.688;10.908;2022-08-05T08:53:00;2.88;;;1.67;;
24891;SDS011;12954;50.688;10.908;2022-08-05T08:55:37;3.65;;;2.13;;
24891;SDS011;12954;50.688;10.908;2022-08-05T08:58:27;1.80;;;1.70;;
24891;SDS011;12954;50.688;10.908;2022-08-05T09:01:12;2.15;;;1.63;;
24891;SDS011;12954;50.688;10.908;2022-08-05T09:03:44;2.97;;;2.58;;
24891;SDS011;12954;50.688;10.908;2022-08-05T09:06:22;2.88;;;1.77;;
24891;SDS011;12954;50.688;10.908;2022-08-05T09:08:55;3.83;;;3.05;;
24891;SDS011;12954;50.688;10.908;2022-08-05T09:11:25;4.70;;;2.55;;
24891;SDS011;12954;50.688;10.908;2022-08-05T09:14:14;3.03;;;1.70;;
24891;SDS011;12954;50.688;10.908;2022-08-05T09:17:04;2.10;;;1.58;;
24891;SDS011;12954;50.688;10.908;2022-08-05T09:19:54;3.78;;;1.85;;
24891;SDS011;12954;50.688;10.908;2022-08-05T09:23:01;2.65;;;1.40;;
24891;SDS011;12954;50.688;10.908;2022-08-05T09:25:35;1.95;;;1.45;;
24891;SDS011;12954;50.688;10.908;2022-08-05T09:28:24;2.03;;;1.40;;
24891;SDS011;12954;50.688;10.908;2022-08-05T09:30:59;4.50;;;1.40;;
24891;SDS011;12954;50.688;10.908;2022-08-05T09:33:51;3.67;;;1.48;;
24891;SDS011;12954;50.688;10.908;2022-08-05T09:36:21;1.70;;;1.23;;
24891;SDS011;12954;50.688;10.908;2022-08-05T09:39:00;2.67;;;1.45;;
24891;SDS011;12954;50.688;10.908;2022-08-05T09:41:53;2.70;;;1.30;;
24891;SDS011;12954;50.688;10.908;2022-08-05T09:44:33;3.67;;;1.35;;
24891;SDS011;12954;50.688;10.908;2022-08-05T09:47:07;1.45;;;1.05;;
24891;SDS011;12954;50.688;10.908;2022-08-05T09:49:41;1.40;;;1.00;;
24891;SDS011;12954;50.688;10.908;2022-08-05T09:52:28;1.90;;;1.40;;
24891;SDS011;12954;50.688;10.908;2022-08-05T09:55:01;1.60;;;1.50;;
24891;SDS011;12954;50.688;10.908;2022-08-05T09:57:51;1.95;;;1.60;;
24891;SDS011;12954;50.688;10.908;2022-08-05T10:02:55;4.03;;;1.70;;
24891;SDS011;12954;50.688;10.908;2022-08-05T10:05:25;2.70;;;1.58;;
24891;SDS011;12954;50.688;10.908;2022-08-05T10:07:59;4.25;;;1.70;;
24891;SDS011;12954;50.688;10.908;2022-08-05T10:10:50;2.58;;;1.70;;
24891;SDS011;12954;50.688;10.908;2022-08-05T10:13:27;2.15;;;1.30;;
24891;SDS011;12954;50.688;10.908;2022-08-05T10:16:30;2.67;;;1.27;;
24891;SDS011;12954;50.688;10.908;2022-08-05T10:19:18;1.92;;;1.60;;
24891;SDS011;12954;50.688;10.908;2022-08-05T10:21:57;3.08;;;1.65;;
24891;SDS011;12954;50.688;10.908;2022-08-05T10:24:26;1.52;;;1.23;;
24891;SDS011;12954;50.688;10.908;2022-08-05T10:26:59;3.50;;;1.10;;
24891;SDS011;12954;50.688;10.908;2022-08-05T10:29:28;3.05;;;1.30;;
24891;SDS011;12954;50.688;10.908;2022-08-05T10:32:22;4.18;;;1.48;;
24891;SDS011;12954;50.688;10.908;2022-08-05T10:35:11;1.45;;;1.13;;
24891;SDS011;12954;50.688;10.908;2022-08-05T10:37:39;1.38;;;1.23;;
24891;SDS011;12954;50.688;10.908;2022-08-05T10:40:15;2.40;;;1.38;;
24891;SDS011;12954;50.688;10.908;2022-08-05T10:42:56;1.75;;;1.40;;
24891;SDS011;12954;50.688;10.908;2022-08-05T10:45:30;2.00;;;1.50;;
24891;SDS011;12954;50.688;10.908;2022-08-05T10:51:19;1.50;;;1.40;;
24891;SDS011;12954;50.688;10.908;2022-08-05T10:53:55;2.78;;;1.63;;
24891;SDS011;12954;50.688;10.908;2022-08-05T10:56:45;1.77;;;1.48;;
24891;SDS011;12954;50.688;10.908;2022-08-05T10:59:23;1.60;;;1.50;;
24891;SDS011;12954;50.688;10.908;2022-08-05T11:02:13;2.33;;;1.30;;
24891;SDS011;12954;50.688;10.908;2022-08-05T11:05:03;1.98;;;1.33;;
24891;SDS011;12954;50.688;10.908;2022-08-05T11:07:34;2.88;;;1.60;;
24891;SDS011;12954;50.688;10.908;2022-08-05T11:10:32;1.58;;;1.42;;
24891;SDS011;12954;50.688;10.908;2022-08-05T11:13:03;2.22;;;1.63;;
24891;SDS011;12954;50.688;10.908;2022-08-05T11:15:35;1.35;;;1.13;;
24891;SDS011;12954;50.688;10.908;2022-08-05T11:18:27;3.13;;;1.45;;
24891;SDS011;12954;50.688;10.908;2022-08-05T11:20:59;3.28;;;1.70;;
24891;SDS011;12954;50.688;10.908;2022-08-05T11:23:40;3.28;;;1.80;;
24891;SDS011;12954;50.688;10.908;2022-08-05T11:26:30;1.35;;;1.23;;
24891;SDS011;12954;50.688;10.908;2022-08-05T11:28:59;2.08;;;1.25;;
24891;SDS011;12954;50.688;10.908;2022-08-05T11:31:41;1.45;;;1.27;;
24891;SDS011;12954;50.688;10.908;2022-08-05T11:34:34;3.10;;;0.98;;
24891;SDS011;12954;50.688;10.908;2022-08-05T11:37:04;1.27;;;1.08;;
24891;SDS011;12954;50.688;10.908;2022-08-05T11:39:53;1.38;;;1.20;;
24891;SDS011;12954;50.688;10.908;2022-08-05T11:42:30;1.20;;;1.10;;
24891;SDS011;12954;50.688;10.908;2022-08-05T11:45:06;2.75;;;1.20;;
24891;SDS011;12954;50.688;10.908;2022-08-05T11:47:57;1.38;;;1.27;;
24891;SDS011;12954;50.688;10.908;2022-08-05T11:50:26;1.38;;;1.13;;
24891;SDS011;12954;50.688;10.908;2022-08-05T11:52:55;2.28;;;1.30;;
24891;SDS011;12954;50.688;10.908;2022-08-05T11:55:35;1.33;;;1.23;;
24891;SDS011;12954;50.688;10.908;2022-08-05T11:58:03;1.42;;;1.30;;
24891;SDS011;12954;50.688;10.908;2022-08-05T12:00:36;1.88;;;1.20;;
24891;SDS011;12954;50.688;10.908;2022-08-05T12:03:18;6.30;;;1.25;;
24891;SDS011;12954;50.688;10.908;2022-08-05T12:05:58;1.23;;;1.13;;
24891;SDS011;12954;50.688;10.908;2022-08-05T12:08:41;1.23;;;1.00;;
24891;SDS011;12954;50.688;10.908;2022-08-05T12:11:17;1.15;;;1.05;;
24891;SDS011;12954;50.688;10.908;2022-08-05T12:13:54;4.28;;;1.30;;
24891;SDS011;12954;50.688;10.908;2022-08-05T12:16:31;2.67;;;1.42;;
24891;SDS011;12954;50.688;10.908;2022-08-05T12:19:05;1.25;;;1.00;;
24891;SDS011;12954;50.688;10.908;2022-08-05T12:21:56;3.25;;;1.25;;
24891;SDS011;12954;50.688;10.908;2022-08-05T12:24:26;2.63;;;1.15;;
24891;SDS011;12954;50.688;10.908;2022-08-05T12:26:55;2.08;;;1.20;;
24891;SDS011;12954;50.688;10.908;2022-08-05T12:29:34;2.70;;;1.20;;
24891;SDS011;12954;50.688;10.908;2022-08-05T12:32:04;2.47;;;1.33;;
24891;SDS011;12954;50.688;10.908;2022-08-05T12:34:36;1.60;;;1.30;;
24891;SDS011;12954;50.688;10.908;2022-08-05T12:37:05;1.90;;;1.10;;
24891;SDS011;12954;50.688;10.908;2022-08-05T12:39:43;1.95;;;1.50;;
24891;SDS011;12954;50.688;10.908;2022-08-05T12:42:17;2.15;;;1.40;;
24891;SDS011;12954;50.688;10.908;2022-08-05T12:44:50;3.33;;;1.45;;
24891;SDS011;12954;50.688;10.908;2022-08-05T12:47:28;1.85;;;1.50;;
24891;SDS011;12954;50.688;10.908;2022-08-05T12:50:11;1.55;;;1.20;;
24891;SDS011;12954;50.688;10.908;2022-08-05T12:52:41;2.17;;;1.70;;
24891;SDS011;12954;50.688;10.908;2022-08-05T12:55:24;3.45;;;1.45;;
24891;SDS011;12954;50.688;10.908;2022-08-05T12:57:58;2.00;;;1.63;;
24891;SDS011;12954;50.688;10.908;2022-08-05T13:00:47;1.55;;;1.20;;
24891;SDS011;12954;50.688;10.908;2022-08-05T13:03:37;1.50;;;1.40;;
24891;SDS011;12954;50.688;10.908;2022-08-05T13:06:13;2.47;;;1.05;;
24891;SDS011;12954;50.688;10.908;2022-08-05T13:08:45;1.98;;;1.40;;
24891;SDS011;12954;50.688;10.908;2022-08-05T13:11:18;1.33;;;1.23;;
24891;SDS011;12954;50.688;10.908;2022-08-05T13:14:17;1.90;;;1.42;;
24891;SDS011;12954;50.688;10.908;2022-08-05T13:17:02;1.45;;;1.35;;
24891;SDS011;12954;50.688;10.908;2022-08-05T13:19:36;5.03;;;1.40;;
24891;SDS011;12954;50.688;10.908;2022-08-05T13:22:20;2.85;;;1.20;;
24891;SDS011;12954;50.688;10.908;2022-08-05T13:24:55;2.33;;;1.50;;
24891;SDS011;12954;50.688;10.908;2022-08-05T13:27:32;1.17;;;1.00;;
24891;SDS011;12954;50.688;10.908;2022-08-05T13:30:04;3.05;;;1.17;;
24891;SDS011;12954;50.688;10.908;2022-08-05T13:32:55;3.67;;;1.30;;
24891;SDS011;12954;50.688;10.908;2022-08-05T13:35:27;2.35;;;1.17;;
24891;SDS011;12954;50.688;10.908;2022-08-05T13:38:13;2.17;;;1.38;;
24891;SDS011;12954;50.688;10.908;2022-08-05T13:40:56;2.47;;;1.67;;
24891;SDS011;12954;50.688;10.908;2022-08-05T13:43:26;2.92;;;1.55;;
24891;SDS011;12954;50.688;10.908;2022-08-05T13:46:14;1.38;;;1.27;;
24891;SDS011;12954;50.688;10.908;2022-08-05T13:49:04;2.80;;;1.63;;
24891;SDS011;12954;50.688;10.908;2022-08-05T13:51:36;1.67;;;1.23;;
24891;SDS011;12954;50.688;10.908;2022-08-05T13:54:08;4.72;;;1.85;;
24891;SDS011;12954;50.688;10.908;2022-08-05T13:56:40;2.13;;;1.70;;
24891;SDS011;12954;50.688;10.908;2022-08-05T13:59:16;2.60;;;2.00;;
24891;SDS011;12954;50.688;10.908;2022-08-05T14:01:50;2.35;;;1.60;;
24891;SDS011;12954;50.688;10.908;2022-08-05T14:04:25;2.70;;;2.10;;
24891;SDS011;12954;50.688;10.908;2022-08-05T14:07:16;4.28;;;1.77;;
24891;SDS011;12954;50.688;10.908;2022-08-05T14:10:08;1.88;;;1.65;;
24891;SDS011;12954;50.688;10.908;2022-08-05T14:12:38;2.53;;;1.77;;
24891;SDS011;12954;50.688;10.908;2022-08-05T14:15:14;2.63;;;1.92;;
24891;SDS011;12954;50.688;10.908;2022-08-05T14:18:03;3.80;;;2.20;;
24891;SDS011;12954;50.688;10.908;2022-08-05T14:20:44;4.13;;;2.00;;
24891;SDS011;12954;50.688;10.908;2022-08-05T14:23:14;2.75;;;1.70;;
24891;SDS011;12954;50.688;10.908;2022-08-05T14:25:52;3.47;;;2.10;;
24891;SDS011;12954;50.688;10.908;2022-08-05T14:28:25;2.70;;;1.92;;
24891;SDS011;12954;50.688;10.908;2022-08-05T14:30:55;2.35;;;2.00;;
24891;SDS011;12954;50.688;10.908;2022-08-05T14:33:24;3.22;;;1.90;;
24891;SDS011;12954;50.688;10.908;2022-08-05T14:35:58;3.47;;;2.10;;
24891;SDS011;12954;50.688;10.908;2022-08-05T14:38:27;3.35;;;1.92;;
24891;SDS011;12954;50.688;10.908;2022-08-05T14:41:03;1.75;;;1.65;;
24891;SDS011;12954;50.688;10.908;2022-08-05T14:43:34;3.38;;;1.98;;
24891;SDS011;12954;50.688;10.908;2022-08-05T14:46:23;3.85;;;2.22;;
24891;SDS011;12954;50.688;10.908;2022-08-05T14:48:56;2.78;;;2.28;;
24891;SDS011;12954;50.688;10.908;2022-08-05T14:51:32;3.03;;;2.20;;
24891;SDS011;12954;50.688;10.908;2022-08-05T14:54:03;2.78;;;1.98;;
24891;SDS011;12954;50.688;10.908;2022-08-05T14:56:53;3.38;;;2.00;;
24891;SDS011;12954;50.688;10.908;2022-08-05T14:59:23;3.45;;;2.22;;
24891;SDS011;12954;50.688;10.908;2022-08-05T15:02:00;3.38;;;2.00;;
24891;SDS011;12954;50.688;10.908;2022-08-05T15:04:41;3.30;;;2.38;;
24891;SDS011;12954;50.688;10.908;2022-08-05T15:07:15;2.42;;;1.95;;
24891;SDS011;12954;50.688;10.908;2022-08-05T15:10:05;3.35;;;1.98;;
24891;SDS011;12954;50.688;10.908;2022-08-05T15:12:56;3.22;;;2.20;;
24891;SDS011;12954;50.688;10.908;2022-08-05T15:15:35;5.47;;;2.17;;
24891;SDS011;12954;50.688;10.908;2022-08-05T15:18:21;3.05;;;2.30;;
24891;SDS011;12954;50.688;10.908;2022-08-05T15:20:50;5.10;;;2.63;;
24891;SDS011;12954;50.688;10.908;2022-08-05T15:23:19;3.28;;;2.60;;
24891;SDS011;12954;50.688;10.908;2022-08-05T15:25:48;2.55;;;2.35;;
24891;SDS011;12954;50.688;10.908;2022-08-05T15:28:24;2.80;;;2.50;;
24891;SDS011;12954;50.688;10.908;2022-08-05T15:30:53;4.03;;;2.42;;
24891;SDS011;12954;50.688;10.908;2022-08-05T15:33:22;4.10;;;3.03;;
24891;SDS011;12954;50.688;10.908;2022-08-05T15:36:10;6.70;;;3.63;;
24891;SDS011;12954;50.688;10.908;2022-08-05T15:38:49;6.03;;;3.40;;
24891;SDS011;12954;50.688;10.908;2022-08-05T15:41:38;6.95;;;3.67;;
24891;SDS011;12954;50.688;10.908;2022-08-05T15:44:26;8.27;;;4.57;;
24891;SDS011;12954;50.688;10.908;2022-08-05T15:46:56;7.57;;;5.78;;
24891;SDS011;12954;50.688;10.908;2022-08-05T15:49:25;8.93;;;5.70;;
24891;SDS011;12954;50.688;10.908;2022-08-05T15:52:14;6.22;;;5.05;;